sensor_id;sensor_type;location;lat;lon;timestamp;temperature;humidity
68051;DHT22;54839;51.364;7.246;2023-07-22T00:00:55;13.30;99.90
68051;DHT22;54839;51.364;7.246;2023-07-22T00:03:21;13.30;99.90
68051;DHT22;54839;51.364;7.246;2023-07-22T00:05:48;13.30;99.90
68051;DHT22;54839;51.364;7.246;2023-07-22T00:08:14;13.30;99.90
68051;DHT22;54839;51.364;7.246;2023-07-22T00:10:42;13.20;99.90
68051;DHT22;54839;51.364;7.246;2023-07-22T00:13:08;13.20;99.90
68051;DHT22;54839;51.364;7.246;2023-07-22T00:15:34;13.20;99.90
68051;DHT22;54839;51.364;7.246;2023-07-22T00:18:00;13.30;99.90
68051;DHT22;54839;51.364;7.246;2023-07-22T00:20:26;13.30;99.90
68051;DHT22;54839;51.364;7.246;2023-07-22T00:22:52;13.30;99.90
68051;DHT22;54839;51.364;7.246;2023-07-22T00:25:18;13.40;99.90
68051;DHT22;54839;51.364;7.246;2023-07-22T00:27:43;13.40;99.90
68051;DHT22;54839;51.364;7.246;2023-07-22T00:30:09;13.40;99.90
68051;DHT22;54839;51.364;7.246;2023-07-22T00:32:35;13.40;99.90
68051;DHT22;54839;51.364;7.246;2023-07-22T00:35:06;13.40;99.90
68051;DHT22;54839;51.364;7.246;2023-07-22T00:37:32;13.20;99.90
68051;DHT22;54839;51.364;7.246;2023-07-22T00:39:58;13.10;99.90
68051;DHT22;54839;51.364;7.246;2023-07-22T00:42:24;13.20;99.90
68051;DHT22;54839;51.364;7.246;2023-07-22T00:44:50;13.10;99.90
68051;DHT22;54839;51.364;7.246;2023-07-22T00:47:16;13.10;99.90
68051;DHT22;54839;51.364;7.246;2023-07-22T00:49:43;13.10;99.90
68051;DHT22;54839;51.364;7.246;2023-07-22T00:52:09;13.10;99.90
68051;DHT22;54839;51.364;7.246;2023-07-22T00:54:35;13.30;99.90
68051;DHT22;54839;51.364;7.246;2023-07-22T00:57:00;13.50;99.90
68051;DHT22;54839;51.364;7.246;2023-07-22T00:59:27;13.50;99.90
68051;DHT22;54839;51.364;7.246;2023-07-22T01:01:52;13.40;99.90
68051;DHT22;54839;51.364;7.246;2023-07-22T01:04:20;13.50;99.90
68051;DHT22;54839;51.364;7.246;2023-07-22T01:06:48;13.40;99.90
68051;DHT22;54839;51.364;7.246;2023-07-22T01:09:14;13.40;99.90
68051;DHT22;54839;51.364;7.246;2023-07-22T01:11:39;13.40;99.90
68051;DHT22;54839;51.364;7.246;2023-07-22T01:14:05;13.40;99.90
68051;DHT22;54839;51.364;7.246;2023-07-22T01:16:31;13.40;99.90
68051;DHT22;54839;51.364;7.246;2023-07-22T01:18:56;13.40;99.90
68051;DHT22;54839;51.364;7.246;2023-07-22T01:21:23;13.40;99.90
68051;DHT22;54839;51.364;7.246;2023-07-22T01:23:50;13.50;99.90
68051;DHT22;54839;51.364;7.246;2023-07-22T01:26:16;13.50;99.90
68051;DHT22;54839;51.364;7.246;2023-07-22T01:28:43;13.40;99.90
68051;DHT22;54839;51.364;7.246;2023-07-22T01:31:09;13.50;99.90
68051;DHT22;54839;51.364;7.246;2023-07-22T01:33:35;13.50;99.90
68051;DHT22;54839;51.364;7.246;2023-07-22T01:36:01;13.50;99.90
68051;DHT22;54839;51.364;7.246;2023-07-22T01:38:27;13.50;99.90
68051;DHT22;54839;51.364;7.246;2023-07-22T01:40:54;13.60;99.90
68051;DHT22;54839;51.364;7.246;2023-07-22T01:43:20;13.60;99.90
68051;DHT22;54839;51.364;7.246;2023-07-22T01:45:46;13.70;99.90
68051;DHT22;54839;51.364;7.246;2023-07-22T01:48:12;13.70;99.90
68051;DHT22;54839;51.364;7.246;2023-07-22T01:50:38;13.80;99.90
68051;DHT22;54839;51.364;7.246;2023-07-22T01:53:03;13.80;99.90
68051;DHT22;54839;51.364;7.246;2023-07-22T01:55:31;13.90;99.90
68051;DHT22;54839;51.364;7.246;2023-07-22T01:57:57;13.80;99.90
68051;DHT22;54839;51.364;7.246;2023-07-22T02:00:23;13.80;99.90
68051;DHT22;54839;51.364;7.246;2023-07-22T02:02:49;13.80;99.90
68051;DHT22;54839;51.364;7.246;2023-07-22T02:05:14;13.80;99.90
68051;DHT22;54839;51.364;7.246;2023-07-22T02:07:40;13.70;99.90
68051;DHT22;54839;51.364;7.246;2023-07-22T02:10:06;13.80;99.90
68051;DHT22;54839;51.364;7.246;2023-07-22T02:12:34;13.70;99.90
68051;DHT22;54839;51.364;7.246;2023-07-22T02:15:00;13.70;99.90
68051;DHT22;54839;51.364;7.246;2023-07-22T02:17:25;13.70;99.90
68051;DHT22;54839;51.364;7.246;2023-07-22T02:19:51;13.80;99.90
68051;DHT22;54839;51.364;7.246;2023-07-22T02:22:17;13.70;99.90
68051;DHT22;54839;51.364;7.246;2023-07-22T02:24:43;13.70;99.90
68051;DHT22;54839;51.364;7.246;2023-07-22T02:27:08;13.70;99.90
68051;DHT22;54839;51.364;7.246;2023-07-22T02:29:34;13.70;99.90
68051;DHT22;54839;51.364;7.246;2023-07-22T02:32:00;13.70;99.90
68051;DHT22;54839;51.364;7.246;2023-07-22T02:34:26;13.70;99.90
68051;DHT22;54839;51.364;7.246;2023-07-22T02:36:52;13.60;99.90
68051;DHT22;54839;51.364;7.246;2023-07-22T02:39:18;13.70;99.90
68051;DHT22;54839;51.364;7.246;2023-07-22T02:41:43;13.70;99.90
68051;DHT22;54839;51.364;7.246;2023-07-22T02:44:09;13.70;99.90
68051;DHT22;54839;51.364;7.246;2023-07-22T02:46:34;13.70;99.90
68051;DHT22;54839;51.364;7.246;2023-07-22T02:49:00;13.90;99.90
68051;DHT22;54839;51.364;7.246;2023-07-22T02:51:26;13.80;99.90
68051;DHT22;54839;51.364;7.246;2023-07-22T02:53:52;13.80;99.90
68051;DHT22;54839;51.364;7.246;2023-07-22T02:56:17;13.80;99.90
68051;DHT22;54839;51.364;7.246;2023-07-22T02:58:43;13.70;99.90
68051;DHT22;54839;51.364;7.246;2023-07-22T03:01:09;13.70;99.90
68051;DHT22;54839;51.364;7.246;2023-07-22T03:03:36;13.60;99.90
68051;DHT22;54839;51.364;7.246;2023-07-22T03:06:02;13.60;99.90
68051;DHT22;54839;51.364;7.246;2023-07-22T03:08:29;13.50;99.90
68051;DHT22;54839;51.364;7.246;2023-07-22T03:10:55;13.50;99.90
68051;DHT22;54839;51.364;7.246;2023-07-22T03:13:20;13.50;99.90
68051;DHT22;54839;51.364;7.246;2023-07-22T03:15:46;13.50;99.90
68051;DHT22;54839;51.364;7.246;2023-07-22T03:18:12;13.60;99.90
68051;DHT22;54839;51.364;7.246;2023-07-22T03:20:38;13.70;99.90
68051;DHT22;54839;51.364;7.246;2023-07-22T03:23:05;13.60;99.90
68051;DHT22;54839;51.364;7.246;2023-07-22T03:25:31;13.60;99.90
68051;DHT22;54839;51.364;7.246;2023-07-22T03:27:58;13.50;99.90
68051;DHT22;54839;51.364;7.246;2023-07-22T03:30:25;13.60;99.90
68051;DHT22;54839;51.364;7.246;2023-07-22T03:32:50;13.60;99.90
68051;DHT22;54839;51.364;7.246;2023-07-22T03:35:17;13.50;99.90
68051;DHT22;54839;51.364;7.246;2023-07-22T03:37:43;13.60;99.90
68051;DHT22;54839;51.364;7.246;2023-07-22T03:40:09;13.60;99.90
68051;DHT22;54839;51.364;7.246;2023-07-22T03:42:53;13.60;99.90
68051;DHT22;54839;51.364;7.246;2023-07-22T03:45:20;13.60;99.90
68051;DHT22;54839;51.364;7.246;2023-07-22T03:47:49;13.60;99.90
68051;DHT22;54839;51.364;7.246;2023-07-22T03:50:15;13.70;99.90
68051;DHT22;54839;51.364;7.246;2023-07-22T03:52:41;13.70;99.90
68051;DHT22;54839;51.364;7.246;2023-07-22T03:55:06;13.70;99.90
68051;DHT22;54839;51.364;7.246;2023-07-22T03:57:32;13.80;99.90
68051;DHT22;54839;51.364;7.246;2023-07-22T03:59:58;13.70;99.90
68051;DHT22;54839;51.364;7.246;2023-07-22T04:02:24;13.90;99.90
68051;DHT22;54839;51.364;7.246;2023-07-22T04:04:54;13.90;99.90
68051;DHT22;54839;51.364;7.246;2023-07-22T04:07:21;13.80;99.90
68051;DHT22;54839;51.364;7.246;2023-07-22T04:09:47;13.90;99.90
68051;DHT22;54839;51.364;7.246;2023-07-22T04:12:13;14.00;99.90
68051;DHT22;54839;51.364;7.246;2023-07-22T04:14:39;14.00;99.90
68051;DHT22;54839;51.364;7.246;2023-07-22T04:17:05;14.00;99.90
68051;DHT22;54839;51.364;7.246;2023-07-22T04:19:30;14.00;99.90
68051;DHT22;54839;51.364;7.246;2023-07-22T04:21:56;14.10;99.90
68051;DHT22;54839;51.364;7.246;2023-07-22T04:24:22;14.10;99.90
68051;DHT22;54839;51.364;7.246;2023-07-22T04:26:48;14.10;99.90
68051;DHT22;54839;51.364;7.246;2023-07-22T04:29:14;14.10;99.90
68051;DHT22;54839;51.364;7.246;2023-07-22T04:31:39;14.20;99.90
68051;DHT22;54839;51.364;7.246;2023-07-22T04:34:05;14.30;99.90
68051;DHT22;54839;51.364;7.246;2023-07-22T04:36:31;14.40;99.90
68051;DHT22;54839;51.364;7.246;2023-07-22T04:38:57;14.30;99.90
68051;DHT22;54839;51.364;7.246;2023-07-22T04:41:23;14.30;99.90
68051;DHT22;54839;51.364;7.246;2023-07-22T04:43:48;14.30;99.90
68051;DHT22;54839;51.364;7.246;2023-07-22T04:46:16;14.40;99.90
68051;DHT22;54839;51.364;7.246;2023-07-22T04:48:41;14.40;99.90
68051;DHT22;54839;51.364;7.246;2023-07-22T04:51:07;14.50;99.90
68051;DHT22;54839;51.364;7.246;2023-07-22T04:53:33;14.50;99.90
68051;DHT22;54839;51.364;7.246;2023-07-22T04:55:58;14.60;99.90
68051;DHT22;54839;51.364;7.246;2023-07-22T04:58:24;14.70;99.90
68051;DHT22;54839;51.364;7.246;2023-07-22T05:00:50;14.80;99.90
68051;DHT22;54839;51.364;7.246;2023-07-22T05:03:16;14.70;99.90
68051;DHT22;54839;51.364;7.246;2023-07-22T05:05:42;14.80;99.90
68051;DHT22;54839;51.364;7.246;2023-07-22T05:08:08;14.90;99.90
68051;DHT22;54839;51.364;7.246;2023-07-22T05:10:34;14.90;99.90
68051;DHT22;54839;51.364;7.246;2023-07-22T05:12:59;15.00;99.90
68051;DHT22;54839;51.364;7.246;2023-07-22T05:15:25;15.00;99.90
68051;DHT22;54839;51.364;7.246;2023-07-22T05:17:51;15.00;99.90
68051;DHT22;54839;51.364;7.246;2023-07-22T05:20:17;15.20;99.90
68051;DHT22;54839;51.364;7.246;2023-07-22T05:22:43;15.10;99.90
68051;DHT22;54839;51.364;7.246;2023-07-22T05:25:09;15.00;99.90
68051;DHT22;54839;51.364;7.246;2023-07-22T05:27:37;15.10;99.90
68051;DHT22;54839;51.364;7.246;2023-07-22T05:30:07;15.20;99.90
68051;DHT22;54839;51.364;7.246;2023-07-22T05:32:33;15.30;99.90
68051;DHT22;54839;51.364;7.246;2023-07-22T05:34:58;15.20;99.90
68051;DHT22;54839;51.364;7.246;2023-07-22T05:37:25;15.40;99.90
68051;DHT22;54839;51.364;7.246;2023-07-22T05:39:51;15.30;99.90
68051;DHT22;54839;51.364;7.246;2023-07-22T05:42:17;15.20;99.90
68051;DHT22;54839;51.364;7.246;2023-07-22T05:44:43;15.20;99.90
68051;DHT22;54839;51.364;7.246;2023-07-22T05:47:09;15.20;99.90
68051;DHT22;54839;51.364;7.246;2023-07-22T05:49:34;15.20;99.90
68051;DHT22;54839;51.364;7.246;2023-07-22T05:52:00;15.20;99.90
68051;DHT22;54839;51.364;7.246;2023-07-22T05:54:26;15.40;99.90
68051;DHT22;54839;51.364;7.246;2023-07-22T05:56:51;15.50;99.90
68051;DHT22;54839;51.364;7.246;2023-07-22T05:59:17;15.40;99.90
68051;DHT22;54839;51.364;7.246;2023-07-22T06:01:43;15.40;99.90
68051;DHT22;54839;51.364;7.246;2023-07-22T06:04:08;15.40;99.90
68051;DHT22;54839;51.364;7.246;2023-07-22T06:06:35;15.50;99.90
68051;DHT22;54839;51.364;7.246;2023-07-22T06:09:01;15.60;99.90
68051;DHT22;54839;51.364;7.246;2023-07-22T06:11:26;15.50;99.90
68051;DHT22;54839;51.364;7.246;2023-07-22T06:13:54;15.60;99.90
68051;DHT22;54839;51.364;7.246;2023-07-22T06:16:19;15.60;99.90
68051;DHT22;54839;51.364;7.246;2023-07-22T06:18:45;15.60;99.90
68051;DHT22;54839;51.364;7.246;2023-07-22T06:21:10;15.50;99.90
68051;DHT22;54839;51.364;7.246;2023-07-22T06:23:36;15.70;99.90
68051;DHT22;54839;51.364;7.246;2023-07-22T06:26:02;15.70;99.90
68051;DHT22;54839;51.364;7.246;2023-07-22T06:28:28;15.80;99.90
68051;DHT22;54839;51.364;7.246;2023-07-22T06:30:53;15.80;99.90
68051;DHT22;54839;51.364;7.246;2023-07-22T06:33:19;15.90;99.90
68051;DHT22;54839;51.364;7.246;2023-07-22T06:35:45;16.00;99.90
68051;DHT22;54839;51.364;7.246;2023-07-22T06:38:11;16.10;99.90
68051;DHT22;54839;51.364;7.246;2023-07-22T06:40:36;16.20;99.90
68051;DHT22;54839;51.364;7.246;2023-07-22T06:43:02;16.30;99.90
68051;DHT22;54839;51.364;7.246;2023-07-22T06:45:28;16.30;99.90
68051;DHT22;54839;51.364;7.246;2023-07-22T06:47:53;16.50;99.90
68051;DHT22;54839;51.364;7.246;2023-07-22T06:50:19;16.50;99.90
68051;DHT22;54839;51.364;7.246;2023-07-22T06:52:44;16.60;99.90
68051;DHT22;54839;51.364;7.246;2023-07-22T06:55:10;16.80;99.90
68051;DHT22;54839;51.364;7.246;2023-07-22T06:57:37;16.70;99.90
68051;DHT22;54839;51.364;7.246;2023-07-22T07:00:04;16.80;99.90
68051;DHT22;54839;51.364;7.246;2023-07-22T07:02:30;16.90;99.90
68051;DHT22;54839;51.364;7.246;2023-07-22T07:04:56;16.90;99.90
68051;DHT22;54839;51.364;7.246;2023-07-22T07:07:21;16.90;99.90
68051;DHT22;54839;51.364;7.246;2023-07-22T07:09:47;17.10;99.90
68051;DHT22;54839;51.364;7.246;2023-07-22T07:12:13;17.20;99.90
68051;DHT22;54839;51.364;7.246;2023-07-22T07:14:38;17.50;99.90
68051;DHT22;54839;51.364;7.246;2023-07-22T07:17:04;17.50;99.90
68051;DHT22;54839;51.364;7.246;2023-07-22T07:19:30;17.50;99.90
68051;DHT22;54839;51.364;7.246;2023-07-22T07:21:55;17.70;99.90
68051;DHT22;54839;51.364;7.246;2023-07-22T07:24:21;17.40;99.90
68051;DHT22;54839;51.364;7.246;2023-07-22T07:26:47;17.60;99.90
68051;DHT22;54839;51.364;7.246;2023-07-22T07:29:12;17.50;99.90
68051;DHT22;54839;51.364;7.246;2023-07-22T07:31:38;17.30;99.90
68051;DHT22;54839;51.364;7.246;2023-07-22T07:34:04;17.40;99.90
68051;DHT22;54839;51.364;7.246;2023-07-22T07:36:30;17.50;99.90
68051;DHT22;54839;51.364;7.246;2023-07-22T07:38:55;17.50;99.90
68051;DHT22;54839;51.364;7.246;2023-07-22T07:41:21;17.40;99.90
68051;DHT22;54839;51.364;7.246;2023-07-22T07:43:47;17.30;99.90
68051;DHT22;54839;51.364;7.246;2023-07-22T07:46:20;17.40;99.90
68051;DHT22;54839;51.364;7.246;2023-07-22T07:48:48;17.40;99.90
68051;DHT22;54839;51.364;7.246;2023-07-22T07:51:15;17.30;99.90
68051;DHT22;54839;51.364;7.246;2023-07-22T07:53:41;17.50;99.90
68051;DHT22;54839;51.364;7.246;2023-07-22T07:56:09;17.70;99.90
68051;DHT22;54839;51.364;7.246;2023-07-22T07:58:36;17.70;99.90
68051;DHT22;54839;51.364;7.246;2023-07-22T08:01:02;17.80;99.90
68051;DHT22;54839;51.364;7.246;2023-07-22T08:03:28;18.00;99.90
68051;DHT22;54839;51.364;7.246;2023-07-22T08:05:53;18.10;99.90
68051;DHT22;54839;51.364;7.246;2023-07-22T08:08:20;18.30;99.90
68051;DHT22;54839;51.364;7.246;2023-07-22T08:10:45;18.30;99.90
68051;DHT22;54839;51.364;7.246;2023-07-22T08:13:11;18.40;99.90
68051;DHT22;54839;51.364;7.246;2023-07-22T08:15:37;18.30;99.90
68051;DHT22;54839;51.364;7.246;2023-07-22T08:18:02;18.50;99.90
68051;DHT22;54839;51.364;7.246;2023-07-22T08:20:29;18.80;99.90
68051;DHT22;54839;51.364;7.246;2023-07-22T08:22:56;18.60;99.90
68051;DHT22;54839;51.364;7.246;2023-07-22T08:25:22;19.00;99.90
68051;DHT22;54839;51.364;7.246;2023-07-22T08:27:47;19.30;99.90
68051;DHT22;54839;51.364;7.246;2023-07-22T08:30:13;19.40;99.90
68051;DHT22;54839;51.364;7.246;2023-07-22T08:32:38;19.00;99.90
68051;DHT22;54839;51.364;7.246;2023-07-22T08:35:04;18.90;99.90
68051;DHT22;54839;51.364;7.246;2023-07-22T08:37:31;19.10;99.90
68051;DHT22;54839;51.364;7.246;2023-07-22T08:40:00;19.00;99.90
68051;DHT22;54839;51.364;7.246;2023-07-22T08:42:28;19.00;99.90
68051;DHT22;54839;51.364;7.246;2023-07-22T08:44:57;19.10;99.90
68051;DHT22;54839;51.364;7.246;2023-07-22T08:47:28;19.20;99.90
68051;DHT22;54839;51.364;7.246;2023-07-22T08:49:57;19.10;99.90
68051;DHT22;54839;51.364;7.246;2023-07-22T08:52:23;19.10;99.90
68051;DHT22;54839;51.364;7.246;2023-07-22T08:54:50;19.00;99.90
68051;DHT22;54839;51.364;7.246;2023-07-22T08:57:16;19.00;99.90
68051;DHT22;54839;51.364;7.246;2023-07-22T08:59:43;19.20;99.90
68051;DHT22;54839;51.364;7.246;2023-07-22T09:02:12;19.20;99.90
68051;DHT22;54839;51.364;7.246;2023-07-22T09:04:39;19.20;99.90
68051;DHT22;54839;51.364;7.246;2023-07-22T09:07:06;19.10;99.90
68051;DHT22;54839;51.364;7.246;2023-07-22T09:09:32;19.00;99.90
68051;DHT22;54839;51.364;7.246;2023-07-22T09:11:59;19.10;99.90
68051;DHT22;54839;51.364;7.246;2023-07-22T09:14:25;19.20;99.90
68051;DHT22;54839;51.364;7.246;2023-07-22T09:16:51;19.10;99.90
68051;DHT22;54839;51.364;7.246;2023-07-22T09:19:17;19.20;99.90
68051;DHT22;54839;51.364;7.246;2023-07-22T09:21:43;19.40;99.90
68051;DHT22;54839;51.364;7.246;2023-07-22T09:24:24;19.40;99.90
68051;DHT22;54839;51.364;7.246;2023-07-22T09:26:50;19.60;99.90
68051;DHT22;54839;51.364;7.246;2023-07-22T09:29:16;19.70;99.90
68051;DHT22;54839;51.364;7.246;2023-07-22T09:31:53;20.10;99.90
68051;DHT22;54839;51.364;7.246;2023-07-22T09:34:19;20.20;99.90
68051;DHT22;54839;51.364;7.246;2023-07-22T09:36:56;20.50;99.90
68051;DHT22;54839;51.364;7.246;2023-07-22T09:39:23;20.70;99.90
68051;DHT22;54839;51.364;7.246;2023-07-22T09:41:49;20.90;99.90
68051;DHT22;54839;51.364;7.246;2023-07-22T09:44:14;20.90;99.90
68051;DHT22;54839;51.364;7.246;2023-07-22T09:46:40;20.70;99.90
68051;DHT22;54839;51.364;7.246;2023-07-22T09:49:08;20.60;99.90
68051;DHT22;54839;51.364;7.246;2023-07-22T09:51:39;20.40;99.90
68051;DHT22;54839;51.364;7.246;2023-07-22T09:54:05;20.20;99.90
68051;DHT22;54839;51.364;7.246;2023-07-22T09:56:32;20.20;99.90
68051;DHT22;54839;51.364;7.246;2023-07-22T09:59:09;20.20;99.90
68051;DHT22;54839;51.364;7.246;2023-07-22T10:01:38;20.40;99.90
68051;DHT22;54839;51.364;7.246;2023-07-22T10:04:04;20.40;99.90
68051;DHT22;54839;51.364;7.246;2023-07-22T10:06:31;20.60;99.90
68051;DHT22;54839;51.364;7.246;2023-07-22T10:09:02;20.80;99.90
68051;DHT22;54839;51.364;7.246;2023-07-22T10:11:28;20.50;99.90
68051;DHT22;54839;51.364;7.246;2023-07-22T10:13:55;20.60;99.90
68051;DHT22;54839;51.364;7.246;2023-07-22T10:16:22;20.70;99.90
68051;DHT22;54839;51.364;7.246;2023-07-22T10:18:49;20.70;99.90
68051;DHT22;54839;51.364;7.246;2023-07-22T10:21:14;20.30;99.90
68051;DHT22;54839;51.364;7.246;2023-07-22T10:23:41;20.40;99.90
68051;DHT22;54839;51.364;7.246;2023-07-22T10:26:07;20.40;99.90
68051;DHT22;54839;51.364;7.246;2023-07-22T10:28:36;20.40;99.90
68051;DHT22;54839;51.364;7.246;2023-07-22T10:31:02;20.30;99.90
68051;DHT22;54839;51.364;7.246;2023-07-22T10:33:28;20.50;99.90
68051;DHT22;54839;51.364;7.246;2023-07-22T10:36:10;20.60;99.90
68051;DHT22;54839;51.364;7.246;2023-07-22T10:38:38;20.50;99.90
68051;DHT22;54839;51.364;7.246;2023-07-22T10:41:15;20.40;99.90
68051;DHT22;54839;51.364;7.246;2023-07-22T10:43:54;20.40;99.90
68051;DHT22;54839;51.364;7.246;2023-07-22T10:46:37;20.10;99.90
68051;DHT22;54839;51.364;7.246;2023-07-22T10:49:14;20.40;99.90
68051;DHT22;54839;51.364;7.246;2023-07-22T10:51:41;20.70;99.90
68051;DHT22;54839;51.364;7.246;2023-07-22T10:54:14;20.80;99.90
68051;DHT22;54839;51.364;7.246;2023-07-22T10:56:44;20.80;99.90
68051;DHT22;54839;51.364;7.246;2023-07-22T10:59:13;20.80;99.90
68051;DHT22;54839;51.364;7.246;2023-07-22T11:01:39;20.80;99.90
68051;DHT22;54839;51.364;7.246;2023-07-22T11:04:22;21.00;99.90
68051;DHT22;54839;51.364;7.246;2023-07-22T11:07:00;21.10;99.90
68051;DHT22;54839;51.364;7.246;2023-07-22T11:14:39;20.80;99.90
68051;DHT22;54839;51.364;7.246;2023-07-22T11:17:06;21.00;99.90
68051;DHT22;54839;51.364;7.246;2023-07-22T11:19:33;21.40;99.90
68051;DHT22;54839;51.364;7.246;2023-07-22T11:22:00;21.30;99.90
68051;DHT22;54839;51.364;7.246;2023-07-22T11:24:26;21.40;99.90
68051;DHT22;54839;51.364;7.246;2023-07-22T11:26:52;21.40;99.90
68051;DHT22;54839;51.364;7.246;2023-07-22T11:29:18;21.60;99.90
68051;DHT22;54839;51.364;7.246;2023-07-22T11:31:46;21.60;99.90
68051;DHT22;54839;51.364;7.246;2023-07-22T11:34:14;21.70;99.90
68051;DHT22;54839;51.364;7.246;2023-07-22T11:36:40;21.50;99.90
68051;DHT22;54839;51.364;7.246;2023-07-22T11:39:10;21.40;99.90
68051;DHT22;54839;51.364;7.246;2023-07-22T11:41:37;21.30;99.90
68051;DHT22;54839;51.364;7.246;2023-07-22T11:44:04;21.60;99.90
68051;DHT22;54839;51.364;7.246;2023-07-22T11:46:59;22.00;99.90
68051;DHT22;54839;51.364;7.246;2023-07-22T11:52:10;22.60;99.90
68051;DHT22;54839;51.364;7.246;2023-07-22T11:54:40;22.50;99.90
68051;DHT22;54839;51.364;7.246;2023-07-22T11:57:23;22.70;99.90
68051;DHT22;54839;51.364;7.246;2023-07-22T11:59:50;22.60;99.90
68051;DHT22;54839;51.364;7.246;2023-07-22T12:02:18;22.70;99.90
68051;DHT22;54839;51.364;7.246;2023-07-22T12:04:59;22.80;99.90
68051;DHT22;54839;51.364;7.246;2023-07-22T12:07:26;22.30;99.90
68051;DHT22;54839;51.364;7.246;2023-07-22T12:09:54;22.30;99.90
68051;DHT22;54839;51.364;7.246;2023-07-22T12:12:20;22.70;99.90
68051;DHT22;54839;51.364;7.246;2023-07-22T12:14:46;22.70;99.90
68051;DHT22;54839;51.364;7.246;2023-07-22T12:17:12;22.80;99.90
68051;DHT22;54839;51.364;7.246;2023-07-22T12:19:37;22.90;99.90
68051;DHT22;54839;51.364;7.246;2023-07-22T12:22:03;23.80;99.90
68051;DHT22;54839;51.364;7.246;2023-07-22T12:24:30;23.70;98.70
68051;DHT22;54839;51.364;7.246;2023-07-22T12:26:55;23.50;98.50
68051;DHT22;54839;51.364;7.246;2023-07-22T12:29:21;23.30;97.00
68051;DHT22;54839;51.364;7.246;2023-07-22T12:31:51;23.00;97.00
68051;DHT22;54839;51.364;7.246;2023-07-22T12:34:16;23.20;96.70
68051;DHT22;54839;51.364;7.246;2023-07-22T12:36:42;23.30;97.20
68051;DHT22;54839;51.364;7.246;2023-07-22T12:39:08;24.10;97.40
68051;DHT22;54839;51.364;7.246;2023-07-22T12:41:33;24.30;96.10
68051;DHT22;54839;51.364;7.246;2023-07-22T12:43:59;24.20;95.10
68051;DHT22;54839;51.364;7.246;2023-07-22T12:46:25;24.60;94.80
68051;DHT22;54839;51.364;7.246;2023-07-22T12:48:50;26.10;93.10
68051;DHT22;54839;51.364;7.246;2023-07-22T12:51:16;27.00;91.80
68051;DHT22;54839;51.364;7.246;2023-07-22T12:53:41;28.20;89.20
68051;DHT22;54839;51.364;7.246;2023-07-22T12:56:07;27.90;83.70
68051;DHT22;54839;51.364;7.246;2023-07-22T12:58:33;27.50;83.90
68051;DHT22;54839;51.364;7.246;2023-07-22T13:00:59;29.50;83.60
68051;DHT22;54839;51.364;7.246;2023-07-22T13:03:25;31.50;74.40
68051;DHT22;54839;51.364;7.246;2023-07-22T13:05:50;28.20;74.40
68051;DHT22;54839;51.364;7.246;2023-07-22T13:08:16;28.20;76.60
68051;DHT22;54839;51.364;7.246;2023-07-22T13:10:41;28.20;73.50
68051;DHT22;54839;51.364;7.246;2023-07-22T13:13:10;28.40;73.40
68051;DHT22;54839;51.364;7.246;2023-07-22T13:15:36;29.40;71.70
68051;DHT22;54839;51.364;7.246;2023-07-22T13:18:01;29.70;68.90
68051;DHT22;54839;51.364;7.246;2023-07-22T13:20:28;27.90;70.70
68051;DHT22;54839;51.364;7.246;2023-07-22T13:22:54;28.00;71.50
68051;DHT22;54839;51.364;7.246;2023-07-22T13:25:20;28.30;71.00
68051;DHT22;54839;51.364;7.246;2023-07-22T13:27:46;26.40;73.00
68051;DHT22;54839;51.364;7.246;2023-07-22T13:30:12;25.90;75.20
68051;DHT22;54839;51.364;7.246;2023-07-22T13:32:39;26.70;74.00
68051;DHT22;54839;51.364;7.246;2023-07-22T13:35:05;29.70;70.90
68051;DHT22;54839;51.364;7.246;2023-07-22T13:37:30;30.20;65.20
68051;DHT22;54839;51.364;7.246;2023-07-22T13:39:56;32.50;64.10
68051;DHT22;54839;51.364;7.246;2023-07-22T13:42:23;33.30;61.10
68051;DHT22;54839;51.364;7.246;2023-07-22T13:44:49;31.20;58.40
68051;DHT22;54839;51.364;7.246;2023-07-22T13:47:15;28.00;61.90
68051;DHT22;54839;51.364;7.246;2023-07-22T13:49:41;26.90;64.60
68051;DHT22;54839;51.364;7.246;2023-07-22T13:52:06;26.40;65.40
68051;DHT22;54839;51.364;7.246;2023-07-22T13:54:32;26.50;66.90
68051;DHT22;54839;51.364;7.246;2023-07-22T13:56:58;28.40;65.30
68051;DHT22;54839;51.364;7.246;2023-07-22T13:59:23;29.50;64.90
68051;DHT22;54839;51.364;7.246;2023-07-22T14:01:49;29.00;63.20
68051;DHT22;54839;51.364;7.246;2023-07-22T14:04:15;29.80;63.80
68051;DHT22;54839;51.364;7.246;2023-07-22T14:06:41;30.60;61.60
68051;DHT22;54839;51.364;7.246;2023-07-22T14:09:07;32.30;60.00
68051;DHT22;54839;51.364;7.246;2023-07-22T14:11:32;32.50;58.10
68051;DHT22;54839;51.364;7.246;2023-07-22T14:13:59;32.20;57.40
68051;DHT22;54839;51.364;7.246;2023-07-22T14:16:24;31.80;56.70
68051;DHT22;54839;51.364;7.246;2023-07-22T14:18:50;29.60;58.50
68051;DHT22;54839;51.364;7.246;2023-07-22T14:21:18;31.40;57.80
68051;DHT22;54839;51.364;7.246;2023-07-22T14:23:44;31.30;56.00
68051;DHT22;54839;51.364;7.246;2023-07-22T14:26:09;31.90;55.20
68051;DHT22;54839;51.364;7.246;2023-07-22T14:28:35;33.30;53.80
68051;DHT22;54839;51.364;7.246;2023-07-22T14:31:00;32.50;53.40
68051;DHT22;54839;51.364;7.246;2023-07-22T14:33:26;32.10;53.20
68051;DHT22;54839;51.364;7.246;2023-07-22T14:35:52;32.50;53.70
68051;DHT22;54839;51.364;7.246;2023-07-22T14:38:17;32.70;52.30
68051;DHT22;54839;51.364;7.246;2023-07-22T14:40:43;34.00;51.60
68051;DHT22;54839;51.364;7.246;2023-07-22T14:43:09;32.30;51.90
68051;DHT22;54839;51.364;7.246;2023-07-22T14:45:34;31.80;51.10
68051;DHT22;54839;51.364;7.246;2023-07-22T14:48:00;32.50;50.80
68051;DHT22;54839;51.364;7.246;2023-07-22T14:50:26;32.70;49.90
68051;DHT22;54839;51.364;7.246;2023-07-22T14:52:52;31.80;50.90
68051;DHT22;54839;51.364;7.246;2023-07-22T14:55:17;31.40;50.90
68051;DHT22;54839;51.364;7.246;2023-07-22T14:57:44;31.40;51.20
68051;DHT22;54839;51.364;7.246;2023-07-22T15:00:11;32.90;50.60
68051;DHT22;54839;51.364;7.246;2023-07-22T15:02:37;32.50;50.70
68051;DHT22;54839;51.364;7.246;2023-07-22T15:05:03;31.60;51.50
68051;DHT22;54839;51.364;7.246;2023-07-22T15:07:29;32.30;51.30
68051;DHT22;54839;51.364;7.246;2023-07-22T15:09:57;31.10;50.20
68051;DHT22;54839;51.364;7.246;2023-07-22T15:12:23;31.20;50.50
68051;DHT22;54839;51.364;7.246;2023-07-22T15:14:49;30.70;50.80
68051;DHT22;54839;51.364;7.246;2023-07-22T15:17:15;31.30;50.80
68051;DHT22;54839;51.364;7.246;2023-07-22T15:19:40;31.70;51.60
68051;DHT22;54839;51.364;7.246;2023-07-22T15:22:06;31.60;49.60
68051;DHT22;54839;51.364;7.246;2023-07-22T15:24:32;33.50;49.40
68051;DHT22;54839;51.364;7.246;2023-07-22T15:26:57;33.80;49.40
68051;DHT22;54839;51.364;7.246;2023-07-22T15:29:23;30.30;51.20
68051;DHT22;54839;51.364;7.246;2023-07-22T15:31:49;28.80;53.80
68051;DHT22;54839;51.364;7.246;2023-07-22T15:34:14;27.80;55.10